sensor_id;sensor_type;location;lat;lon;timestamp;P1;durP1;ratioP1;P2;durP2;ratioP2
33403;SDS011;19751;40.274;18.268;2023-02-01T00:00:31;1.33;;;0.90;;
33403;SDS011;19751;40.274;18.268;2023-02-01T00:02:59;4.20;;;1.17;;
33403;SDS011;19751;40.274;18.268;2023-02-01T00:05:25;0.82;;;0.55;;
33403;SDS011;19751;40.274;18.268;2023-02-01T00:07:51;1.40;;;1.02;;
33403;SDS011;19751;40.274;18.268;2023-02-01T00:10:17;1.42;;;0.70;;
33403;SDS011;19751;40.274;18.268;2023-02-01T00:12:43;5.93;;;0.90;;
33403;SDS011;19751;40.274;18.268;2023-02-01T00:15:08;3.45;;;0.90;;
33403;SDS011;19751;40.274;18.268;2023-02-01T00:17:34;3.13;;;0.60;;
33403;SDS011;19751;40.274;18.268;2023-02-01T00:20:00;6.45;;;0.70;;
33403;SDS011;19751;40.274;18.268;2023-02-01T00:22:27;2.38;;;1.00;;
33403;SDS011;19751;40.274;18.268;2023-02-01T00:24:52;0.85;;;0.50;;
33403;SDS011;19751;40.274;18.268;2023-02-01T00:27:18;3.78;;;1.00;;
33403;SDS011;19751;40.274;18.268;2023-02-01T00:29:46;1.83;;;0.50;;
33403;SDS011;19751;40.274;18.268;2023-02-01T00:32:12;3.03;;;0.88;;
33403;SDS011;19751;40.274;18.268;2023-02-01T00:34:37;4.43;;;2.42;;
33403;SDS011;19751;40.274;18.268;2023-02-01T00:37:03;3.35;;;0.82;;
33403;SDS011;19751;40.274;18.268;2023-02-01T00:39:29;3.20;;;0.55;;
33403;SDS011;19751;40.274;18.268;2023-02-01T00:41:54;1.95;;;0.60;;
33403;SDS011;19751;40.274;18.268;2023-02-01T00:44:20;0.80;;;0.50;;
33403;SDS011;19751;40.274;18.268;2023-02-01T00:46:46;0.80;;;0.47;;
33403;SDS011;19751;40.274;18.268;2023-02-01T00:49:11;2.35;;;0.80;;
33403;SDS011;19751;40.274;18.268;2023-02-01T00:51:37;3.85;;;0.50;;
33403;SDS011;19751;40.274;18.268;2023-02-01T00:54:03;4.03;;;0.63;;
33403;SDS011;19751;40.274;18.268;2023-02-01T00:56:28;1.60;;;0.70;;
33403;SDS011;19751;40.274;18.268;2023-02-01T00:58:55;4.93;;;0.60;;
33403;SDS011;19751;40.274;18.268;2023-02-01T01:01:21;2.92;;;1.85;;
33403;SDS011;19751;40.274;18.268;2023-02-01T01:03:50;1.10;;;0.60;;
33403;SDS011;19751;40.274;18.268;2023-02-01T01:06:22;3.60;;;0.60;;
33403;SDS011;19751;40.274;18.268;2023-02-01T01:08:53;1.58;;;0.63;;
33403;SDS011;19751;40.274;18.268;2023-02-01T01:11:23;2.85;;;0.68;;
33403;SDS011;19751;40.274;18.268;2023-02-01T01:13:52;2.75;;;0.50;;
33403;SDS011;19751;40.274;18.268;2023-02-01T01:16:18;3.58;;;0.60;;
33403;SDS011;19751;40.274;18.268;2023-02-01T01:18:45;4.68;;;0.82;;
33403;SDS011;19751;40.274;18.268;2023-02-01T01:21:11;4.00;;;0.65;;
33403;SDS011;19751;40.274;18.268;2023-02-01T01:23:39;0.93;;;0.50;;
33403;SDS011;19751;40.274;18.268;2023-02-01T01:26:06;1.10;;;0.98;;
33403;SDS011;19751;40.274;18.268;2023-02-01T01:28:37;1.55;;;0.77;;
33403;SDS011;19751;40.274;18.268;2023-02-01T01:31:03;1.23;;;0.60;;
33403;SDS011;19751;40.274;18.268;2023-02-01T01:33:29;2.20;;;0.73;;
33403;SDS011;19751;40.274;18.268;2023-02-01T01:35:54;3.33;;;0.75;;
33403;SDS011;19751;40.274;18.268;2023-02-01T01:38:20;4.68;;;1.08;;
33403;SDS011;19751;40.274;18.268;2023-02-01T01:40:46;3.75;;;0.90;;
33403;SDS011;19751;40.274;18.268;2023-02-01T01:43:13;3.30;;;0.82;;
33403;SDS011;19751;40.274;18.268;2023-02-01T01:45:40;4.07;;;1.02;;
33403;SDS011;19751;40.274;18.268;2023-02-01T01:48:20;2.65;;;0.63;;
33403;SDS011;19751;40.274;18.268;2023-02-01T01:51:00;3.00;;;0.85;;
33403;SDS011;19751;40.274;18.268;2023-02-01T01:53:31;2.17;;;0.70;;
33403;SDS011;19751;40.274;18.268;2023-02-01T01:56:00;2.10;;;0.73;;
33403;SDS011;19751;40.274;18.268;2023-02-01T01:58:27;3.45;;;0.70;;
33403;SDS011;19751;40.274;18.268;2023-02-01T02:00:54;2.47;;;0.47;;
33403;SDS011;19751;40.274;18.268;2023-02-01T02:03:22;3.63;;;1.20;;
33403;SDS011;19751;40.274;18.268;2023-02-01T02:05:52;2.42;;;0.55;;
33403;SDS011;19751;40.274;18.268;2023-02-01T02:08:20;5.43;;;0.95;;
33403;SDS011;19751;40.274;18.268;2023-02-01T02:10:50;2.58;;;0.82;;
33403;SDS011;19751;40.274;18.268;2023-02-01T02:13:29;1.67;;;0.88;;
33403;SDS011;19751;40.274;18.268;2023-02-01T02:22:03;1.50;;;0.60;;
33403;SDS011;19751;40.274;18.268;2023-02-01T02:30:28;5.30;;;1.08;;
33403;SDS011;19751;40.274;18.268;2023-02-01T02:33:22;3.45;;;0.90;;
33403;SDS011;19751;40.274;18.268;2023-02-01T02:39:08;5.57;;;1.05;;
33403;SDS011;19751;40.274;18.268;2023-02-01T02:44:33;2.88;;;0.73;;
33403;SDS011;19751;40.274;18.268;2023-02-01T02:47:26;9.75;;;2.75;;
33403;SDS011;19751;40.274;18.268;2023-02-01T02:50:11;2.47;;;0.70;;
33403;SDS011;19751;40.274;18.268;2023-02-01T02:53:07;3.70;;;0.85;;
33403;SDS011;19751;40.274;18.268;2023-02-01T02:55:59;5.05;;;0.98;;
33403;SDS011;19751;40.274;18.268;2023-02-01T02:58:48;4.57;;;1.00;;
33403;SDS011;19751;40.274;18.268;2023-02-01T03:04:16;2.30;;;0.80;;
33403;SDS011;19751;40.274;18.268;2023-02-01T03:06:46;2.05;;;0.60;;
33403;SDS011;19751;40.274;18.268;2023-02-01T03:09:54;2.10;;;0.60;;
33403;SDS011;19751;40.274;18.268;2023-02-01T03:12:04;4.00;;;2.42;;
33403;SDS011;19751;40.274;18.268;2023-02-01T03:14:56;1.67;;;0.80;;
33403;SDS011;19751;40.274;18.268;2023-02-01T03:17:27;3.10;;;0.57;;
33403;SDS011;19751;40.274;18.268;2023-02-01T03:19:59;5.40;;;0.80;;
33403;SDS011;19751;40.274;18.268;2023-02-01T03:22:28;1.42;;;0.68;;
33403;SDS011;19751;40.274;18.268;2023-02-01T03:25:02;1.48;;;0.70;;
33403;SDS011;19751;40.274;18.268;2023-02-01T03:28:08;2.30;;;0.60;;
33403;SDS011;19751;40.274;18.268;2023-02-01T03:30:31;2.53;;;0.55;;
33403;SDS011;19751;40.274;18.268;2023-02-01T03:33:02;0.75;;;0.50;;
33403;SDS011;19751;40.274;18.268;2023-02-01T03:41:10;3.08;;;0.80;;
33403;SDS011;19751;40.274;18.268;2023-02-01T03:43:49;1.33;;;0.70;;
33403;SDS011;19751;40.274;18.268;2023-02-01T03:46:25;2.72;;;0.47;;
33403;SDS011;19751;40.274;18.268;2023-02-01T03:48:59;2.30;;;0.90;;
33403;SDS011;19751;40.274;18.268;2023-02-01T03:51:28;2.10;;;0.77;;
33403;SDS011;19751;40.274;18.268;2023-02-01T03:53:54;2.90;;;0.73;;
33403;SDS011;19751;40.274;18.268;2023-02-01T03:56:21;2.25;;;0.70;;
33403;SDS011;19751;40.274;18.268;2023-02-01T03:58:50;2.97;;;0.63;;
33403;SDS011;19751;40.274;18.268;2023-02-01T04:01:27;6.53;;;1.10;;
33403;SDS011;19751;40.274;18.268;2023-02-01T04:03:55;1.67;;;0.65;;
33403;SDS011;19751;40.274;18.268;2023-02-01T04:06:21;1.38;;;0.70;;
33403;SDS011;19751;40.274;18.268;2023-02-01T04:08:47;1.08;;;0.50;;
33403;SDS011;19751;40.274;18.268;2023-02-01T04:11:13;1.33;;;0.50;;
33403;SDS011;19751;40.274;18.268;2023-02-01T04:13:38;0.77;;;0.50;;
33403;SDS011;19751;40.274;18.268;2023-02-01T04:16:04;1.38;;;0.47;;
33403;SDS011;19751;40.274;18.268;2023-02-01T04:18:30;4.05;;;0.63;;
33403;SDS011;19751;40.274;18.268;2023-02-01T04:20:55;4.28;;;1.45;;
33403;SDS011;19751;40.274;18.268;2023-02-01T04:23:21;1.95;;;0.85;;
33403;SDS011;19751;40.274;18.268;2023-02-01T04:25:46;0.57;;;0.43;;
33403;SDS011;19751;40.274;18.268;2023-02-01T04:28:12;2.05;;;0.65;;
33403;SDS011;19751;40.274;18.268;2023-02-01T04:30:38;4.78;;;1.17;;
33403;SDS011;19751;40.274;18.268;2023-02-01T04:33:03;3.85;;;0.77;;
33403;SDS011;19751;40.274;18.268;2023-02-01T04:35:32;0.50;;;0.50;;
33403;SDS011;19751;40.274;18.268;2023-02-01T04:37:58;2.70;;;0.63;;
33403;SDS011;19751;40.274;18.268;2023-02-01T04:40:24;1.48;;;0.73;;
33403;SDS011;19751;40.274;18.268;2023-02-01T04:42:50;3.50;;;0.63;;
33403;SDS011;19751;40.274;18.268;2023-02-01T04:45:15;1.63;;;0.55;;
33403;SDS011;19751;40.274;18.268;2023-02-01T04:47:41;1.20;;;0.75;;
33403;SDS011;19751;40.274;18.268;2023-02-01T04:50:06;2.55;;;0.80;;
33403;SDS011;19751;40.274;18.268;2023-02-01T04:52:35;2.85;;;0.50;;
33403;SDS011;19751;40.274;18.268;2023-02-01T04:55:01;2.33;;;0.65;;
33403;SDS011;19751;40.274;18.268;2023-02-01T04:57:28;3.30;;;0.70;;
33403;SDS011;19751;40.274;18.268;2023-02-01T04:59:53;3.38;;;1.25;;
33403;SDS011;19751;40.274;18.268;2023-02-01T05:02:19;1.25;;;0.65;;
33403;SDS011;19751;40.274;18.268;2023-02-01T05:04:44;1.70;;;1.00;;
33403;SDS011;19751;40.274;18.268;2023-02-01T05:07:10;6.60;;;3.22;;
33403;SDS011;19751;40.274;18.268;2023-02-01T05:09:35;4.68;;;1.60;;
33403;SDS011;19751;40.274;18.268;2023-02-01T05:12:01;3.15;;;1.98;;
33403;SDS011;19751;40.274;18.268;2023-02-01T05:14:45;2.05;;;1.42;;
33403;SDS011;19751;40.274;18.268;2023-02-01T05:17:10;3.00;;;2.03;;
33403;SDS011;19751;40.274;18.268;2023-02-01T05:19:36;2.92;;;1.92;;
33403;SDS011;19751;40.274;18.268;2023-02-01T05:22:02;3.33;;;1.77;;
33403;SDS011;19751;40.274;18.268;2023-02-01T05:24:27;3.30;;;2.30;;
33403;SDS011;19751;40.274;18.268;2023-02-01T05:26:53;5.75;;;3.10;;
33403;SDS011;19751;40.274;18.268;2023-02-01T05:29:19;6.25;;;2.85;;
33403;SDS011;19751;40.274;18.268;2023-02-01T05:31:45;4.93;;;2.40;;
33403;SDS011;19751;40.274;18.268;2023-02-01T05:34:11;9.70;;;3.70;;
33403;SDS011;19751;40.274;18.268;2023-02-01T05:36:37;3.88;;;1.55;;
33403;SDS011;19751;40.274;18.268;2023-02-01T05:39:03;3.05;;;1.00;;
33403;SDS011;19751;40.274;18.268;2023-02-01T05:41:28;2.70;;;0.77;;
33403;SDS011;19751;40.274;18.268;2023-02-01T05:43:54;4.18;;;1.60;;
33403;SDS011;19751;40.274;18.268;2023-02-01T05:46:20;5.75;;;2.70;;
33403;SDS011;19751;40.274;18.268;2023-02-01T05:48:46;2.60;;;1.77;;
33403;SDS011;19751;40.274;18.268;2023-02-01T05:51:12;3.88;;;1.88;;
33403;SDS011;19751;40.274;18.268;2023-02-01T05:53:37;4.57;;;2.60;;
33403;SDS011;19751;40.274;18.268;2023-02-01T05:56:03;11.65;;;5.22;;
33403;SDS011;19751;40.274;18.268;2023-02-01T05:58:29;7.97;;;3.92;;
33403;SDS011;19751;40.274;18.268;2023-02-01T06:00:55;5.35;;;3.05;;
33403;SDS011;19751;40.274;18.268;2023-02-01T06:03:21;18.80;;;10.60;;
33403;SDS011;19751;40.274;18.268;2023-02-01T06:05:47;22.15;;;11.68;;
33403;SDS011;19751;40.274;18.268;2023-02-01T06:08:13;41.08;;;15.02;;
33403;SDS011;19751;40.274;18.268;2023-02-01T06:10:39;7.88;;;4.93;;
33403;SDS011;19751;40.274;18.268;2023-02-01T06:13:05;11.35;;;7.22;;
33403;SDS011;19751;40.274;18.268;2023-02-01T06:15:31;11.45;;;6.15;;
33403;SDS011;19751;40.274;18.268;2023-02-01T06:17:57;8.55;;;4.00;;
33403;SDS011;19751;40.274;18.268;2023-02-01T06:20:24;5.68;;;3.78;;
33403;SDS011;19751;40.274;18.268;2023-02-01T06:22:49;8.23;;;3.92;;
33403;SDS011;19751;40.274;18.268;2023-02-01T06:25:15;8.43;;;3.78;;
33403;SDS011;19751;40.274;18.268;2023-02-01T06:27:42;8.75;;;3.67;;
33403;SDS011;19751;40.274;18.268;2023-02-01T06:30:09;6.47;;;2.80;;
33403;SDS011;19751;40.274;18.268;2023-02-01T06:32:38;5.47;;;2.47;;
33403;SDS011;19751;40.274;18.268;2023-02-01T06:35:05;6.03;;;3.58;;
33403;SDS011;19751;40.274;18.268;2023-02-01T06:37:32;8.10;;;3.42;;
33403;SDS011;19751;40.274;18.268;2023-02-01T06:39:59;24.33;;;8.73;;
33403;SDS011;19751;40.274;18.268;2023-02-01T06:42:24;14.00;;;7.45;;
33403;SDS011;19751;40.274;18.268;2023-02-01T06:44:50;13.20;;;6.25;;
33403;SDS011;19751;40.274;18.268;2023-02-01T06:47:16;15.68;;;7.70;;
33403;SDS011;19751;40.274;18.268;2023-02-01T06:49:42;14.98;;;8.20;;
33403;SDS011;19751;40.274;18.268;2023-02-01T06:52:07;14.32;;;7.20;;
33403;SDS011;19751;40.274;18.268;2023-02-01T06:54:33;15.35;;;7.25;;
33403;SDS011;19751;40.274;18.268;2023-02-01T06:56:59;9.18;;;5.32;;
33403;SDS011;19751;40.274;18.268;2023-02-01T06:59:25;13.25;;;6.15;;
33403;SDS011;19751;40.274;18.268;2023-02-01T07:01:50;11.25;;;6.57;;
33403;SDS011;19751;40.274;18.268;2023-02-01T07:04:16;14.40;;;6.72;;
33403;SDS011;19751;40.274;18.268;2023-02-01T07:06:41;8.65;;;5.38;;
33403;SDS011;19751;40.274;18.268;2023-02-01T07:09:07;10.02;;;5.10;;
33403;SDS011;19751;40.274;18.268;2023-02-01T07:11:34;7.10;;;4.40;;
33403;SDS011;19751;40.274;18.268;2023-02-01T07:14:00;6.53;;;4.00;;
33403;SDS011;19751;40.274;18.268;2023-02-01T07:16:25;5.25;;;3.58;;
33403;SDS011;19751;40.274;18.268;2023-02-01T07:18:51;6.75;;;3.15;;
33403;SDS011;19751;40.274;18.268;2023-02-01T07:21:18;8.32;;;3.42;;
33403;SDS011;19751;40.274;18.268;2023-02-01T07:23:44;10.23;;;4.72;;
33403;SDS011;19751;40.274;18.268;2023-02-01T07:26:10;5.60;;;3.95;;
33403;SDS011;19751;40.274;18.268;2023-02-01T07:28:38;8.18;;;4.72;;
33403;SDS011;19751;40.274;18.268;2023-02-01T07:33:31;14.60;;;4.22;;
33403;SDS011;19751;40.274;18.268;2023-02-01T07:35:57;11.98;;;3.75;;
33403;SDS011;19751;40.274;18.268;2023-02-01T07:38:22;7.68;;;3.65;;
33403;SDS011;19751;40.274;18.268;2023-02-01T07:40:49;9.27;;;4.60;;
33403;SDS011;19751;40.274;18.268;2023-02-01T07:43:15;7.45;;;4.43;;
33403;SDS011;19751;40.274;18.268;2023-02-01T07:45:41;21.63;;;12.95;;
33403;SDS011;19751;40.274;18.268;2023-02-01T07:48:06;15.50;;;10.35;;
33403;SDS011;19751;40.274;18.268;2023-02-01T07:50:32;11.82;;;5.63;;
33403;SDS011;19751;40.274;18.268;2023-02-01T07:52:58;8.82;;;4.57;;
33403;SDS011;19751;40.274;18.268;2023-02-01T07:55:25;10.55;;;5.30;;
33403;SDS011;19751;40.274;18.268;2023-02-01T07:57:51;7.95;;;3.88;;
33403;SDS011;19751;40.274;18.268;2023-02-01T08:00:17;7.63;;;4.75;;
33403;SDS011;19751;40.274;18.268;2023-02-01T08:03:03;9.02;;;4.07;;
33403;SDS011;19751;40.274;18.268;2023-02-01T08:05:29;13.00;;;6.20;;
33403;SDS011;19751;40.274;18.268;2023-02-01T08:07:55;16.48;;;7.78;;
33403;SDS011;19751;40.274;18.268;2023-02-01T08:10:20;8.93;;;5.18;;
33403;SDS011;19751;40.274;18.268;2023-02-01T08:12:46;10.85;;;5.25;;
33403;SDS011;19751;40.274;18.268;2023-02-01T08:15:16;8.80;;;5.45;;
33403;SDS011;19751;40.274;18.268;2023-02-01T08:17:48;8.07;;;4.07;;
33403;SDS011;19751;40.274;18.268;2023-02-01T08:20:14;5.88;;;3.42;;
33403;SDS011;19751;40.274;18.268;2023-02-01T08:22:40;73.45;;;7.65;;
33403;SDS011;19751;40.274;18.268;2023-02-01T08:25:05;22.40;;;4.38;;
33403;SDS011;19751;40.274;18.268;2023-02-01T08:27:35;7.63;;;3.20;;
33403;SDS011;19751;40.274;18.268;2023-02-01T08:30:02;5.60;;;2.78;;
33403;SDS011;19751;40.274;18.268;2023-02-01T08:32:28;4.70;;;2.75;;
33403;SDS011;19751;40.274;18.268;2023-02-01T08:34:53;6.30;;;2.78;;
33403;SDS011;19751;40.274;18.268;2023-02-01T08:37:19;4.43;;;2.80;;
33403;SDS011;19751;40.274;18.268;2023-02-01T08:39:45;5.88;;;2.85;;
33403;SDS011;19751;40.274;18.268;2023-02-01T08:42:12;4.55;;;2.25;;
33403;SDS011;19751;40.274;18.268;2023-02-01T08:44:56;7.13;;;2.60;;
33403;SDS011;19751;40.274;18.268;2023-02-01T08:47:22;6.40;;;2.80;;
33403;SDS011;19751;40.274;18.268;2023-02-01T08:49:48;7.05;;;2.78;;
33403;SDS011;19751;40.274;18.268;2023-02-01T08:52:13;4.95;;;3.00;;
33403;SDS011;19751;40.274;18.268;2023-02-01T08:54:39;8.13;;;3.65;;
33403;SDS011;19751;40.274;18.268;2023-02-01T08:57:06;3.88;;;2.30;;
33403;SDS011;19751;40.274;18.268;2023-02-01T08:59:31;10.48;;;4.32;;
33403;SDS011;19751;40.274;18.268;2023-02-01T09:01:57;6.55;;;2.70;;
33403;SDS011;19751;40.274;18.268;2023-02-01T09:04:23;7.85;;;2.90;;
33403;SDS011;19751;40.274;18.268;2023-02-01T09:06:48;13.85;;;8.20;;
33403;SDS011;19751;40.274;18.268;2023-02-01T09:09:14;9.98;;;5.72;;
33403;SDS011;19751;40.274;18.268;2023-02-01T09:11:40;8.38;;;4.60;;
33403;SDS011;19751;40.274;18.268;2023-02-01T09:14:05;8.63;;;4.75;;
33403;SDS011;19751;40.274;18.268;2023-02-01T09:16:31;5.13;;;3.05;;
33403;SDS011;19751;40.274;18.268;2023-02-01T09:18:57;7.55;;;3.22;;
33403;SDS011;19751;40.274;18.268;2023-02-01T09:21:22;4.50;;;2.10;;
33403;SDS011;19751;40.274;18.268;2023-02-01T09:23:50;3.15;;;1.90;;
33403;SDS011;19751;40.274;18.268;2023-02-01T09:26:16;4.60;;;2.08;;
33403;SDS011;19751;40.274;18.268;2023-02-01T09:28:42;3.08;;;1.75;;
33403;SDS011;19751;40.274;18.268;2023-02-01T09:31:08;5.88;;;1.98;;
33403;SDS011;19751;40.274;18.268;2023-02-01T09:33:33;2.15;;;1.05;;
33403;SDS011;19751;40.274;18.268;2023-02-01T09:36:00;3.38;;;1.73;;
33403;SDS011;19751;40.274;18.268;2023-02-01T09:38:27;2.50;;;1.75;;
33403;SDS011;19751;40.274;18.268;2023-02-01T09:40:53;1.77;;;1.33;;
33403;SDS011;19751;40.274;18.268;2023-02-01T09:46:21;3.47;;;1.13;;
33403;SDS011;19751;40.274;18.268;2023-02-01T09:48:52;2.67;;;1.38;;
33403;SDS011;19751;40.274;18.268;2023-02-01T09:51:22;3.38;;;1.00;;
33403;SDS011;19751;40.274;18.268;2023-02-01T09:54:25;1.70;;;1.02;;
33403;SDS011;19751;40.274;18.268;2023-02-01T09:56:47;4.07;;;1.00;;
33403;SDS011;19751;40.274;18.268;2023-02-01T10:02:20;5.97;;;3.92;;
33403;SDS011;19751;40.274;18.268;2023-02-01T10:04:48;8.38;;;3.80;;
33403;SDS011;19751;40.274;18.268;2023-02-01T10:10:41;9.47;;;4.10;;
33403;SDS011;19751;40.274;18.268;2023-02-01T10:15:41;4.07;;;1.60;;
33403;SDS011;19751;40.274;18.268;2023-02-01T10:28:48;1.02;;;0.80;;
33403;SDS011;19751;40.274;18.268;2023-02-01T10:31:16;4.70;;;0.90;;
33403;SDS011;19751;40.274;18.268;2023-02-01T10:33:48;1.85;;;0.88;;
33403;SDS011;19751;40.274;18.268;2023-02-01T10:36:19;1.98;;;1.00;;
33403;SDS011;19751;40.274;18.268;2023-02-01T10:38:55;2.85;;;1.48;;
33403;SDS011;19751;40.274;18.268;2023-02-01T10:41:22;1.95;;;1.00;;
33403;SDS011;19751;40.274;18.268;2023-02-01T10:43:54;2.20;;;1.38;;
33403;SDS011;19751;40.274;18.268;2023-02-01T10:46:24;3.35;;;2.13;;
33403;SDS011;19751;40.274;18.268;2023-02-01T10:48:51;5.22;;;2.20;;
33403;SDS011;19751;40.274;18.268;2023-02-01T10:53:57;8.70;;;1.50;;
33403;SDS011;19751;40.274;18.268;2023-02-01T10:56:28;2.92;;;1.25;;
33403;SDS011;19751;40.274;18.268;2023-02-01T10:59:02;1.75;;;0.98;;
33403;SDS011;19751;40.274;18.268;2023-02-01T11:01:37;3.40;;;1.85;;
33403;SDS011;19751;40.274;18.268;2023-02-01T11:04:09;3.00;;;1.55;;
33403;SDS011;19751;40.274;18.268;2023-02-01T11:06:42;3.70;;;1.95;;
33403;SDS011;19751;40.274;18.268;2023-02-01T11:09:11;6.85;;;2.22;;
33403;SDS011;19751;40.274;18.268;2023-02-01T11:11:53;5.82;;;1.80;;
33403;SDS011;19751;40.274;18.268;2023-02-01T11:16:53;1.60;;;1.50;;
33403;SDS011;19751;40.274;18.268;2023-02-01T11:19:23;2.47;;;1.38;;
33403;SDS011;19751;40.274;18.268;2023-02-01T11:21:52;4.22;;;0.85;;
33403;SDS011;19751;40.274;18.268;2023-02-01T11:26:57;2.08;;;1.02;;
33403;SDS011;19751;40.274;18.268;2023-02-01T11:29:23;4.57;;;1.60;;
33403;SDS011;19751;40.274;18.268;2023-02-01T11:31:58;4.55;;;1.33;;
33403;SDS011;19751;40.274;18.268;2023-02-01T11:34:25;5.40;;;2.42;;
33403;SDS011;19751;40.274;18.268;2023-02-01T11:36:58;9.20;;;2.00;;
33403;SDS011;19751;40.274;18.268;2023-02-01T11:39:33;3.05;;;1.75;;
33403;SDS011;19751;40.274;18.268;2023-02-01T11:42:00;4.05;;;1.55;;
33403;SDS011;19751;40.274;18.268;2023-02-01T11:44:32;2.03;;;0.93;;
33403;SDS011;19751;40.274;18.268;2023-02-01T11:49:46;2.92;;;1.45;;
33403;SDS011;19751;40.274;18.268;2023-02-01T12:06:35;44.50;;;21.73;;
33403;SDS011;19751;40.274;18.268;2023-02-01T12:14:26;33.53;;;18.33;;
33403;SDS011;19751;40.274;18.268;2023-02-01T12:16:57;13.55;;;8.18;;
33403;SDS011;19751;40.274;18.268;2023-02-01T12:30:32;3.90;;;1.33;;
33403;SDS011;19751;40.274;18.268;2023-02-01T12:33:35;2.15;;;0.98;;
33403;SDS011;19751;40.274;18.268;2023-02-01T12:47:11;4.75;;;2.13;;
33403;SDS011;19751;40.274;18.268;2023-02-01T12:52:43;2.40;;;1.70;;
33403;SDS011;19751;40.274;18.268;2023-02-01T12:58:03;2.53;;;1.35;;
33403;SDS011;19751;40.274;18.268;2023-02-01T13:01:32;3.10;;;2.13;;
33403;SDS011;19751;40.274;18.268;2023-02-01T13:09:37;1.88;;;1.30;;
33403;SDS011;19751;40.274;18.268;2023-02-01T13:12:36;3.00;;;1.20;;
33403;SDS011;19751;40.274;18.268;2023-02-01T13:15:31;3.30;;;1.60;;
33403;SDS011;19751;40.274;18.268;2023-02-01T13:18:04;2.40;;;1.30;;
33403;SDS011;19751;40.274;18.268;2023-02-01T13:20:35;4.57;;;2.72;;
33403;SDS011;19751;40.274;18.268;2023-02-01T13:23:13;6.50;;;2.55;;
33403;SDS011;19751;40.274;18.268;2023-02-01T13:25:53;7.97;;;4.35;;
33403;SDS011;19751;40.274;18.268;2023-02-01T13:28:36;15.38;;;10.73;;
33403;SDS011;19751;40.274;18.268;2023-02-01T13:41:51;3.95;;;2.70;;
33403;SDS011;19751;40.274;18.268;2023-02-01T13:44:21;6.53;;;2.97;;
33403;SDS011;19751;40.274;18.268;2023-02-01T13:47:15;7.82;;;2.40;;
33403;SDS011;19751;40.274;18.268;2023-02-01T13:49:57;3.63;;;1.70;;
33403;SDS011;19751;40.274;18.268;2023-02-01T13:52:45;9.48;;;4.70;;
33403;SDS011;19751;40.274;18.268;2023-02-01T13:57:47;9.20;;;4.90;;
33403;SDS011;19751;40.274;18.268;2023-02-01T14:00:28;7.18;;;2.97;;
33403;SDS011;19751;40.274;18.268;2023-02-01T14:08:11;6.00;;;4.55;;
33403;SDS011;19751;40.274;18.268;2023-02-01T14:10:56;24.88;;;14.27;;
33403;SDS011;19751;40.274;18.268;2023-02-01T14:23:44;6.32;;;4.55;;
33403;SDS011;19751;40.274;18.268;2023-02-01T14:26:17;6.80;;;3.78;;
33403;SDS011;19751;40.274;18.268;2023-02-01T14:29:18;4.15;;;3.10;;
33403;SDS011;19751;40.274;18.268;2023-02-01T14:31:52;3.88;;;2.53;;
33403;SDS011;19751;40.274;18.268;2023-02-01T14:36:52;2.90;;;1.77;;
33403;SDS011;19751;40.274;18.268;2023-02-01T14:42:13;3.47;;;2.20;;
33403;SDS011;19751;40.274;18.268;2023-02-01T14:44:50;5.95;;;4.10;;
33403;SDS011;19751;40.274;18.268;2023-02-01T14:52:28;18.17;;;11.02;;
33403;SDS011;19751;40.274;18.268;2023-02-01T14:55:00;12.05;;;7.13;;
33403;SDS011;19751;40.274;18.268;2023-02-01T15:00:05;7.70;;;4.68;;
33403;SDS011;19751;40.274;18.268;2023-02-01T15:02:47;4.05;;;3.00;;
33403;SDS011;19751;40.274;18.268;2023-02-01T15:05:26;6.35;;;3.97;;
33403;SDS011;19751;40.274;18.268;2023-02-01T15:07:57;5.22;;;3.50;;
33403;SDS011;19751;40.274;18.268;2023-02-01T15:10:30;6.82;;;4.35;;
33403;SDS011;19751;40.274;18.268;2023-02-01T15:12:57;13.43;;;9.07;;
33403;SDS011;19751;40.274;18.268;2023-02-01T15:15:23;7.32;;;5.50;;
33403;SDS011;19751;40.274;18.268;2023-02-01T15:17:53;9.13;;;5.43;;
33403;SDS011;19751;40.274;18.268;2023-02-01T15:20:25;5.55;;;4.00;;
33403;SDS011;19751;40.274;18.268;2023-02-01T15:22:57;6.05;;;3.40;;
33403;SDS011;19751;40.274;18.268;2023-02-01T15:27:58;4.65;;;2.00;;
33403;SDS011;19751;40.274;18.268;2023-02-01T15:30:25;4.38;;;2.53;;
33403;SDS011;19751;40.274;18.268;2023-02-01T15:33:03;2.00;;;1.63;;
33403;SDS011;19751;40.274;18.268;2023-02-01T15:35:44;4.15;;;1.95;;
33403;SDS011;19751;40.274;18.268;2023-02-01T15:43:28;4.22;;;2.88;;
33403;SDS011;19751;40.274;18.268;2023-02-01T15:46:01;4.72;;;3.08;;
33403;SDS011;19751;40.274;18.268;2023-02-01T15:48:36;8.15;;;4.47;;
33403;SDS011;19751;40.274;18.268;2023-02-01T15:51:12;9.15;;;5.75;;
33403;SDS011;19751;40.274;18.268;2023-02-01T15:53:42;7.05;;;5.38;;
33403;SDS011;19751;40.274;18.268;2023-02-01T15:56:10;7.38;;;4.82;;
33403;SDS011;19751;40.274;18.268;2023-02-01T15:58:35;9.75;;;5.75;;
33403;SDS011;19751;40.274;18.268;2023-02-01T16:01:02;5.40;;;3.95;;
33403;SDS011;19751;40.274;18.268;2023-02-01T16:03:36;5.15;;;4.60;;
33403;SDS011;19751;40.274;18.268;2023-02-01T16:06:10;9.35;;;6.65;;
33403;SDS011;19751;40.274;18.268;2023-02-01T16:08:52;9.70;;;6.20;;
33403;SDS011;19751;40.274;18.268;2023-02-01T16:11:30;10.43;;;7.05;;
33403;SDS011;19751;40.274;18.268;2023-02-01T16:13:58;20.15;;;13.55;;
33403;SDS011;19751;40.274;18.268;2023-02-01T16:16:25;16.33;;;11.90;;
33403;SDS011;19751;40.274;18.268;2023-02-01T16:18:52;21.23;;;13.00;;
33403;SDS011;19751;40.274;18.268;2023-02-01T16:21:18;27.48;;;18.80;;
33403;SDS011;19751;40.274;18.268;2023-02-01T16:23:47;32.03;;;20.50;;
33403;SDS011;19751;40.274;18.268;2023-02-01T16:26:16;17.58;;;11.63;;
33403;SDS011;19751;40.274;18.268;2023-02-01T16:28:43;15.13;;;10.05;;
33403;SDS011;19751;40.274;18.268;2023-02-01T16:31:12;13.10;;;9.18;;
33403;SDS011;19751;40.274;18.268;2023-02-01T16:33:48;11.25;;;8.85;;
33403;SDS011;19751;40.274;18.268;2023-02-01T16:36:15;12.63;;;9.27;;
33403;SDS011;19751;40.274;18.268;2023-02-01T16:38:42;12.13;;;7.03;;
33403;SDS011;19751;40.274;18.268;2023-02-01T16:41:15;13.20;;;9.10;;
33403;SDS011;19751;40.274;18.268;2023-02-01T16:43:42;11.85;;;8.80;;
33403;SDS011;19751;40.274;18.268;2023-02-01T16:46:12;17.70;;;9.90;;
33403;SDS011;19751;40.274;18.268;2023-02-01T16:48:46;15.27;;;10.55;;
33403;SDS011;19751;40.274;18.268;2023-02-01T16:51:16;13.98;;;9.23;;
33403;SDS011;19751;40.274;18.268;2023-02-01T16:53:42;16.52;;;8.93;;
33403;SDS011;19751;40.274;18.268;2023-02-01T16:56:19;13.02;;;7.55;;
33403;SDS011;19751;40.274;18.268;2023-02-01T16:58:45;10.73;;;6.93;;
33403;SDS011;19751;40.274;18.268;2023-02-01T17:01:12;15.68;;;10.40;;
33403;SDS011;19751;40.274;18.268;2023-02-01T17:03:40;23.00;;;14.55;;
33403;SDS011;19751;40.274;18.268;2023-02-01T17:06:06;23.00;;;13.15;;
33403;SDS011;19751;40.274;18.268;2023-02-01T17:08:36;18.58;;;11.10;;
33403;SDS011;19751;40.274;18.268;2023-02-01T17:11:05;18.77;;;9.07;;
33403;SDS011;19751;40.274;18.268;2023-02-01T17:13:32;16.15;;;8.13;;
33403;SDS011;19751;40.274;18.268;2023-02-01T17:16:06;18.55;;;12.45;;
33403;SDS011;19751;40.274;18.268;2023-02-01T17:21:34;24.65;;;15.93;;
33403;SDS011;19751;40.274;18.268;2023-02-01T17:26:33;27.10;;;15.77;;
33403;SDS011;19751;40.274;18.268;2023-02-01T17:28:59;29.85;;;18.27;;
33403;SDS011;19751;40.274;18.268;2023-02-01T17:31:25;43.85;;;26.33;;
33403;SDS011;19751;40.274;18.268;2023-02-01T17:33:50;39.58;;;24.58;;
33403;SDS011;19751;40.274;18.268;2023-02-01T17:36:16;41.25;;;23.88;;